Time;durP1;ratioP1;P1;durP2;ratioP2;P2;SDS_P1;SDS_P2;PMS_P1;PMS_P2;Temp;Humidity;BMP_temperature;BMP_pressure;BME280_temperature;BME280_humidity;BME280_pressure;Samples;Min_cycle;Max_cycle;Signal;HPM_P1;HPM_P2
2021/01/26 00:00:16;;;;;;;3.08;1.60;;;;;;;5.45;61.27;91755.81;5070995;28;20009;-82
2021/01/26 00:02:42;;;;;;;0.65;0.28;;;;;;;5.51;61.46;91756.72;5071069;28;20570;-80
2021/01/26 00:05:10;;;;;;;0.60;0.30;;;;;;;5.50;61.04;91755.94;5071007;28;20072;-82
2021/01/26 00:07:36;;;;;;;1.85;0.77;;;;;;;5.52;61.13;91759.06;5070813;28;20052;-81
2021/01/26 00:10:04;;;;;;;3.35;0.50;;;;;;;5.51;60.36;91738.91;5061718;28;20037;-81
2021/01/26 00:12:30;;;;;;;0.63;0.40;;;;;;;5.40;61.24;91707.28;5050851;28;20175;-81
2021/01/26 00:14:56;;;;;;;;;;;;;;;5.48;60.72;91733.22;5042137;28;20050;-81
2021/01/26 00:17:22;;;;;;;;;;;;;;;5.43;60.68;91734.88;5031751;28;19925;-83
2021/01/26 00:19:48;;;;;;;1.73;0.82;;;;;;;5.40;61.31;91740.38;5045357;28;19920;-82
2021/01/26 00:22:15;;;;;;;3.38;1.83;;;;;;;5.38;61.93;91747.47;5059670;28;20044;-83
2021/01/26 00:24:41;;;;;;;1.30;0.50;;;;;;;5.37;62.01;91749.22;5065013;28;20052;-83
2021/01/26 00:27:08;;;;;;;1.13;0.50;;;;;;;5.39;60.91;91737.09;5066687;28;20044;-83
2021/01/26 00:29:34;;;;;;;3.63;1.20;;;;;;;5.39;61.59;91741.38;5059748;28;20097;-84
2021/01/26 00:32:00;;;;;;;0.40;0.35;;;;;;;5.37;61.85;91741.59;5070819;28;20049;-85
2021/01/26 00:34:27;;;;;;;1.85;0.68;;;;;;;5.32;62.53;91737.16;5070786;28;20455;-83
2021/01/26 00:36:54;;;;;;;1.15;0.50;;;;;;;5.25;62.07;91726.28;5070553;28;20059;-83
2021/01/26 00:39:20;;;;;;;1.88;0.63;;;;;;;5.32;62.14;91723.66;5070733;28;20048;-82
2021/01/26 00:41:46;;;;;;;;;;;;;;;5.26;62.04;91730.38;5070973;28;20044;-81
2021/01/26 00:44:13;;;;;;;0.47;0.28;;;;;;;5.20;62.64;91724.34;5070731;28;20373;-82
2021/01/26 00:46:39;;;;;;;0.40;0.30;;;;;;;5.17;62.13;91714.59;5069388;28;20053;-82
2021/01/26 00:49:06;;;;;;;1.15;0.40;;;;;;;5.19;61.47;91717.72;5060467;28;20480;-81
2021/01/26 00:51:32;;;;;;;0.40;0.30;;;;;;;5.22;61.79;91717.28;5062358;28;20059;-82
2021/01/26 00:53:58;;;;;;;1.02;0.60;;;;;;;5.24;61.27;91717.09;5066616;28;20052;-82
2021/01/26 00:56:24;;;;;;;1.45;0.70;;;;;;;5.26;61.49;91710.00;5054699;28;20048;-82
2021/01/26 00:58:50;;;;;;;;;;;;;;;5.29;60.43;91706.25;5071083;28;20048;-81
2021/01/26 01:01:17;;;;;;;2.55;0.75;;;;;;;5.25;61.07;91700.81;5060627;28;19928;-82
2021/01/26 01:03:44;;;;;;;0.65;0.35;;;;;;;5.21;61.36;91703.00;5058219;28;20476;-81
2021/01/26 01:06:10;;;;;;;;;;;;;;;5.28;61.04;91702.16;5070337;28;20139;-81
2021/01/26 01:08:36;;;;;;;0.68;0.30;;;;;;;5.20;60.47;91701.44;5070334;28;19927;-83
2021/01/26 01:11:02;;;;;;;1.50;0.45;;;;;;;5.29;60.66;91696.06;5055155;28;20063;-81
2021/01/26 01:13:28;;;;;;;2.85;0.35;;;;;;;5.25;60.74;91685.53;5069957;28;20049;-82
2021/01/26 01:15:54;;;;;;;1.63;0.40;;;;;;;5.29;60.20;91693.53;5053335;28;20049;-81
2021/01/26 01:18:21;;;;;;;1.70;0.70;;;;;;;5.27;60.45;91700.59;5051445;28;20048;-83
2021/01/26 01:20:48;;;;;;;0.73;0.73;;;;;;;5.22;60.30;91696.13;5068792;28;20055;-81
2021/01/26 01:23:14;;;;;;;1.00;0.20;;;;;;;5.25;61.21;91690.63;5073658;28;20378;-81
2021/01/26 01:25:40;;;;;;;0.98;0.52;;;;;;;5.14;61.04;91673.53;5073986;28;20086;-81
2021/01/26 01:28:06;;;;;;;2.53;1.88;;;;;;;5.17;60.05;91694.25;5073085;28;20484;-81
2021/01/26 01:30:34;;;;;;;2.22;0.70;;;;;;;5.29;60.41;91689.22;5074354;28;20052;-81
2021/01/26 01:33:03;;;;;;;1.40;1.00;;;;;;;5.20;60.61;91690.50;5074279;28;20044;-80
2021/01/26 01:35:30;;;;;;;3.00;0.40;;;;;;;5.22;60.61;91688.50;5073673;28;20094;-80
2021/01/26 01:37:57;;;;;;;1.70;0.52;;;;;;;5.25;61.74;91682.19;5073658;28;20040;-82
2021/01/26 01:40:26;;;;;;;1.08;0.50;;;;;;;5.26;60.77;91683.75;5073830;28;20090;-82
2021/01/26 01:42:52;;;;;;;0.88;0.38;;;;;;;5.25;61.18;91695.72;5073925;28;20044;-84
2021/01/26 01:45:20;;;;;;;2.78;1.27;;;;;;;5.22;61.39;91691.03;5073686;28;20051;-81
2021/01/26 01:47:51;;;;;;;0.68;0.40;;;;;;;5.18;61.25;91675.44;5073658;28;20416;-82
2021/01/26 01:50:22;;;;;;;2.63;0.40;;;;;;;5.20;61.56;91685.41;5073412;28;20048;-82
2021/01/26 01:52:56;;;;;;;1.42;0.68;;;;;;;5.14;62.06;91666.66;5073541;28;20055;-82
2021/01/26 01:55:25;;;;;;;1.50;0.68;;;;;;;5.05;62.38;91650.16;5072406;28;20045;-81
2021/01/26 01:57:56;;;;;;;2.15;0.30;;;;;;;5.12;62.25;91658.47;5073603;28;20443;-83
2021/01/26 02:00:23;;;;;;;0.88;0.47;;;;;;;5.06;62.72;91655.00;5073469;28;20044;-82
2021/01/26 02:02:54;;;;;;;1.33;0.52;;;;;;;5.02;63.12;91660.75;5073246;28;20527;-82
2021/01/26 02:05:22;;;;;;;2.28;0.52;;;;;;;4.93;62.82;91639.91;5038881;28;20053;-81
2021/01/26 02:07:52;;;;;;;0.73;0.40;;;;;;;5.02;63.66;91635.28;5033485;28;20050;-82
2021/01/26 02:10:19;;;;;;;1.17;0.65;;;;;;;5.03;63.06;91649.56;5044411;28;20045;-83
2021/01/26 02:12:44;;;;;;;;;;;;;;;5.07;63.84;91641.31;5053794;28;20049;-81
2021/01/26 02:15:13;;;;;;;4.13;0.57;;;;;;;5.06;63.93;91631.34;5042231;28;19935;-80
2021/01/26 02:18:04;;;;;;;0.30;0.20;;;;;;;5.02;63.47;91628.44;5033077;28;20057;-81
2021/01/26 02:21:06;;;;;;;0.40;0.20;;;;;;;5.19;63.46;91627.84;5033319;28;20053;-81
2021/01/26 02:24:24;;;;;;;0.70;0.25;;;;;;;5.21;63.43;91630.94;5023273;28;20492;-81
2021/01/26 02:27:23;;;;;;;0.77;0.30;;;;;;;5.20;63.62;91626.84;5073032;28;20082;-82
2021/01/26 02:30:27;;;;;;;8.05;0.30;;;;;;;5.19;63.37;91620.22;5072708;28;20049;-81
2021/01/26 02:33:48;;;;;;;0.63;0.20;;;;;;;5.30;63.55;91613.59;5069814;28;20094;-80
2021/01/26 02:36:52;;;;;;;4.43;0.30;;;;;;;5.30;63.35;91611.06;5061318;28;20102;-81
2021/01/26 02:39:48;;;;;;;0.50;0.33;;;;;;;5.27;63.52;91608.97;5045149;28;20053;-81
2021/01/26 02:42:33;;;;;;;1.55;0.35;;;;;;;5.35;63.13;91611.19;5068354;28;20304;-81
2021/01/26 02:45:17;;;;;;;0.30;0.20;;;;;;;5.38;63.39;91633.69;5072643;28;20049;-82
2021/01/26 02:47:55;;;;;;;0.90;0.40;;;;;;;5.37;63.66;91621.16;5049281;28;20045;-82
2021/01/26 02:50:27;;;;;;;0.75;0.75;;;;;;;5.18;63.71;91596.53;5052251;28;20060;-81
2021/01/26 02:53:01;;;;;;;0.30;0.20;;;;;;;5.41;63.47;91607.75;5052350;28;20440;-83
2021/01/26 02:55:33;;;;;;;0.55;0.40;;;;;;;5.48;63.66;91602.59;5047437;28;20052;-79
2021/01/26 02:58:06;;;;;;;1.63;0.63;;;;;;;5.51;63.10;91589.41;5062880;28;20059;-82
2021/01/26 03:00:35;;;;;;;0.68;0.30;;;;;;;5.50;63.29;91626.06;5054016;28;20052;-83
2021/01/26 03:03:07;;;;;;;2.50;0.77;;;;;;;5.46;63.25;91607.88;5052310;28;20136;-83
2021/01/26 03:05:41;;;;;;;4.28;1.02;;;;;;;5.57;63.09;91618.31;5052000;28;20560;-81
2021/01/26 03:08:13;;;;;;;0.55;0.28;;;;;;;5.61;63.32;91604.94;5052489;28;20060;-82
2021/01/26 03:10:46;;;;;;;0.93;0.40;;;;;;;5.64;63.32;91610.59;5052115;28;20490;-81
2021/01/26 03:13:16;;;;;;;0.80;0.50;;;;;;;5.59;62.98;91624.75;5036184;28;20053;-83
2021/01/26 03:15:48;;;;;;;1.58;0.65;;;;;;;5.58;63.03;91630.84;5031916;28;20064;-83
2021/01/26 03:18:18;;;;;;;0.95;0.50;;;;;;;5.64;62.82;91638.63;5032150;28;20060;-82
2021/01/26 03:20:51;;;;;;;1.55;0.80;;;;;;;5.57;63.47;91631.84;5032437;28;20056;-83
2021/01/26 03:23:26;;;;;;;3.85;1.23;;;;;;;5.61;63.84;91632.19;5071711;28;20041;-83
2021/01/26 03:25:54;;;;;;;1.45;0.80;;;;;;;5.50;63.71;91627.84;5071863;28;20048;-82
2021/01/26 03:28:23;;;;;;;1.05;0.55;;;;;;;5.43;64.09;91618.53;5060333;28;20048;-79
2021/01/26 03:30:52;;;;;;;1.45;0.63;;;;;;;5.47;64.19;91626.50;5071865;28;20090;-80
2021/01/26 03:33:23;;;;;;;1.10;0.57;;;;;;;5.47;64.52;91631.59;5071602;28;20049;-81
2021/01/26 03:35:50;;;;;;;1.67;1.25;;;;;;;5.41;64.38;91629.91;5071639;28;20103;-81
2021/01/26 03:38:21;;;;;;;1.52;0.50;;;;;;;5.42;65.47;91639.09;5071540;28;20052;-82
2021/01/26 03:40:49;;;;;;;1.33;0.30;;;;;;;5.34;65.31;91630.75;5070857;28;20412;-82
2021/01/26 03:43:16;;;;;;;0.90;0.60;;;;;;;5.44;65.23;91640.44;5052910;28;20053;-84
2021/01/26 03:45:43;;;;;;;2.58;1.05;;;;;;;5.48;65.15;91639.00;5052227;28;20049;-82
2021/01/26 03:48:24;;;;;;;1.58;0.77;;;;;;;5.48;65.45;91636.44;5051265;28;20099;-82
2021/01/26 03:51:01;;;;;;;4.85;1.10;;;;;;;5.43;65.54;91628.72;5051213;28;20048;-83
2021/01/26 03:54:05;;;;;;;2.63;0.63;;;;;;;5.41;65.56;91622.28;5052202;28;20049;-83
2021/01/26 03:56:52;;;;;;;1.05;0.57;;;;;;;5.56;65.58;91627.72;5057823;28;20048;-82
2021/01/26 03:59:32;;;;;;;0.95;0.75;;;;;;;5.53;65.54;91632.47;5071551;28;20094;-82
2021/01/26 04:02:09;;;;;;;1.70;0.50;;;;;;;5.57;65.51;91625.97;5065446;28;20045;-82
2021/01/26 04:04:43;;;;;;;0.68;0.52;;;;;;;5.53;65.87;91610.34;5051207;28;20055;-81
2021/01/26 04:07:20;;;;;;;1.77;0.80;;;;;;;5.57;65.86;91620.88;5049444;28;20045;-83
2021/01/26 04:09:57;;;;;;;2.00;0.73;;;;;;;5.60;66.02;91616.13;5051012;28;20045;-83
2021/01/26 04:12:31;;;;;;;0.82;0.32;;;;;;;5.62;66.16;91609.03;5051299;28;20401;-81
2021/01/26 04:15:03;;;;;;;0.73;0.38;;;;;;;5.57;65.91;91614.03;5041867;28;20128;-82
2021/01/26 04:17:33;;;;;;;2.50;0.40;;;;;;;5.65;65.81;91620.53;5031034;28;20042;-82
2021/01/26 04:20:07;;;;;;;0.93;0.55;;;;;;;5.65;65.41;91618.00;5031043;28;20041;-83
2021/01/26 04:22:34;;;;;;;2.88;0.52;;;;;;;5.68;65.60;91620.13;5054630;28;20056;-83
2021/01/26 04:25:00;;;;;;;2.97;1.00;;;;;;;5.76;65.57;91624.13;5064600;28;20052;-83
2021/01/26 04:27:26;;;;;;;2.80;0.80;;;;;;;5.78;66.21;91617.03;5071040;28;20424;-82
2021/01/26 04:29:53;;;;;;;1.10;0.50;;;;;;;5.67;65.90;91600.75;5070968;28;20110;-82
2021/01/26 04:32:23;;;;;;;6.50;0.50;;;;;;;5.78;66.05;91614.47;5070924;28;20071;-82
2021/01/26 04:34:50;;;;;;;1.27;0.60;;;;;;;5.82;65.83;91609.72;5070631;28;20113;-82
2021/01/26 04:37:16;;;;;;;0.52;0.22;;;;;;;5.83;65.61;91606.19;5070521;28;20052;-81
2021/01/26 04:39:42;;;;;;;1.95;0.85;;;;;;;5.81;65.68;91608.97;5055122;28;20044;-82
2021/01/26 04:42:15;;;;;;;1.88;0.30;;;;;;;5.89;65.15;91613.72;5050768;28;20045;-82
2021/01/26 04:44:55;;;;;;;3.08;0.45;;;;;;;5.88;65.14;91609.63;5044031;28;20091;-83
2021/01/26 04:47:26;;;;;;;1.30;0.50;;;;;;;5.94;65.79;91615.63;5043526;28;20049;-83
2021/01/26 04:50:00;;;;;;;1.80;0.40;;;;;;;5.93;65.73;91608.19;5034253;28;20414;-81
2021/01/26 04:52:46;;;;;;;2.22;0.57;;;;;;;5.86;65.99;91605.75;5033134;28;20061;-82
2021/01/26 04:55:24;;;;;;;1.40;0.57;;;;;;;5.87;65.96;91610.63;5069876;28;20048;-82
2021/01/26 04:58:09;;;;;;;1.55;0.47;;;;;;;5.84;65.87;91613.59;5074557;28;20420;-82
2021/01/26 05:00:44;;;;;;;5.57;1.03;;;;;;;5.81;66.10;91605.63;5072679;28;20052;-82
2021/01/26 05:03:39;;;;;;;1.97;0.90;;;;;;;5.75;66.54;91612.38;5054752;28;20049;-81
2021/01/26 05:06:11;;;;;;;1.38;0.80;;;;;;;5.75;66.92;91617.47;5042597;28;20099;-81
2021/01/26 05:08:42;;;;;;;0.98;0.28;;;;;;;5.74;66.18;91614.16;5034411;28;20494;-80
2021/01/26 05:11:11;;;;;;;1.50;0.50;;;;;;;5.72;66.50;91602.63;5034760;28;20053;-84
2021/01/26 05:13:41;;;;;;;0.98;0.70;;;;;;;5.74;66.40;91611.59;5034728;28;20045;-85
2021/01/26 05:16:14;;;;;;;1.15;0.75;;;;;;;5.77;67.14;91627.44;5034408;28;20064;-84
2021/01/26 05:18:48;;;;;;;2.20;0.63;;;;;;;5.75;66.96;91628.44;5034276;28;20049;-83
2021/01/26 05:21:24;;;;;;;5.35;1.27;;;;;;;5.81;66.86;91631.09;5042647;28;20045;-82
2021/01/26 05:23:55;;;;;;;1.25;0.50;;;;;;;5.70;67.13;91625.00;5074373;28;20044;-81
2021/01/26 05:26:22;;;;;;;1.35;0.40;;;;;;;5.81;66.78;91631.09;5074000;28;20067;-82
2021/01/26 05:28:49;;;;;;;;;;;;;;;5.78;67.13;91637.41;5074677;28;20154;-82
2021/01/26 05:31:26;;;;;;;1.33;0.60;;;;;;;5.74;67.57;91628.69;5073894;28;19966;-82
2021/01/26 05:33:53;;;;;;;1.08;0.50;;;;;;;5.75;67.83;91632.78;5074075;28;20054;-82
2021/01/26 05:36:20;;;;;;;9.02;0.68;;;;;;;5.75;68.01;91632.78;5074045;28;20045;-81
2021/01/26 05:38:50;;;;;;;1.40;0.55;;;;;;;5.77;67.55;91638.41;5073857;28;20094;-81
2021/01/26 05:41:18;;;;;;;3.25;1.55;;;;;;;5.83;68.11;91639.31;5073721;28;20469;-81
2021/01/26 05:43:45;;;;;;;3.63;1.08;;;;;;;5.79;67.95;91630.56;5073559;28;20048;-82
2021/01/26 05:46:32;;;;;;;2.17;0.57;;;;;;;5.78;68.42;91623.91;5073636;28;20121;-83
2021/01/26 05:48:59;;;;;;;5.05;0.63;;;;;;;5.87;68.33;91633.56;5073701;28;20048;-81
2021/01/26 05:51:26;;;;;;;2.35;0.65;;;;;;;5.86;68.45;91626.13;5073654;28;20055;-82
2021/01/26 05:53:57;;;;;;;2.17;0.63;;;;;;;5.85;68.81;91633.00;5073500;28;20106;-82
2021/01/26 05:56:24;;;;;;;0.90;0.43;;;;;;;5.82;69.02;91628.34;5073514;28;20040;-81
2021/01/26 05:58:50;;;;;;;3.55;1.42;;;;;;;5.87;68.55;91636.09;5073705;28;20047;-82
2021/01/26 06:01:28;;;;;;;;;;;;;;;5.96;68.26;91638.31;5074065;28;20049;-83
2021/01/26 06:04:11;;;;;;;1.42;0.55;;;;;;;5.86;69.06;91639.66;5072966;28;19924;-83
2021/01/26 06:06:59;;;;;;;3.50;0.70;;;;;;;5.91;68.72;91656.03;5073210;28;20082;-81
2021/01/26 06:09:39;;;;;;;1.73;0.50;;;;;;;5.97;69.07;91665.38;5068497;28;20044;-82
2021/01/26 06:12:09;;;;;;;1.77;0.88;;;;;;;5.88;68.60;91663.13;5073740;28;20049;-82
2021/01/26 06:14:35;;;;;;;3.13;1.33;;;;;;;5.97;68.63;91667.94;5073227;28;20060;-83
2021/01/26 06:17:08;;;;;;;6.15;2.10;;;;;;;6.06;68.66;91687.03;5073141;28;20493;-83
2021/01/26 06:19:35;;;;;;;3.10;0.90;;;;;;;5.95;69.47;91688.53;5073240;28;20048;-81
2021/01/26 06:22:02;;;;;;;0.63;0.40;;;;;;;6.03;70.91;91704.53;5073478;28;20052;-82
2021/01/26 06:24:29;;;;;;;;;;;;;;;6.07;71.35;91713.28;5073623;28;20414;-82
2021/01/26 06:27:24;;;;;;;1.23;0.60;;;;;;;5.82;73.73;91725.16;5073089;28;19921;-81
2021/01/26 06:30:03;;;;;;;2.38;0.93;;;;;;;5.39;76.72;91721.81;5050909;28;20041;-82
2021/01/26 06:32:40;;;;;;;2.47;0.40;;;;;;;5.18;79.91;91739.06;5073023;28;20051;-82
2021/01/26 06:35:14;;;;;;;2.30;0.52;;;;;;;4.97;83.05;91749.66;5072792;28;20052;-82
2021/01/26 06:38:02;;;;;;;2.17;0.85;;;;;;;4.73;86.08;91757.13;5072940;28;20044;-83
2021/01/26 06:40:47;;;;;;;2.60;1.08;;;;;;;4.31;89.02;91734.78;5072932;28;20243;-84
2021/01/26 06:43:30;;;;;;;2.63;0.93;;;;;;;4.33;91.02;91773.47;5072772;28;20045;-84
2021/01/26 06:46:07;;;;;;;2.63;1.50;;;;;;;4.08;94.08;91777.56;5059064;28;20402;-85
2021/01/26 06:48:58;;;;;;;1.25;0.70;;;;;;;3.88;94.84;91782.75;5072332;28;20086;-83
2021/01/26 06:51:59;;;;;;;5.32;2.70;;;;;;;3.72;96.26;91800.03;5072436;28;20056;-86
2021/01/26 06:54:45;;;;;;;4.80;2.05;;;;;;;3.56;97.91;91808.13;5072341;28;20052;-84
2021/01/26 06:57:30;;;;;;;1.33;0.80;;;;;;;3.36;98.38;91800.56;5072673;28;20055;-83
2021/01/26 07:00:16;;;;;;;5.53;1.92;;;;;;;3.44;99.57;91813.03;5072289;28;20051;-85
2021/01/26 07:03:01;;;;;;;4.07;1.77;;;;;;;3.26;100.00;91821.28;5072237;28;20052;-83
2021/01/26 07:05:58;;;;;;;10.38;3.65;;;;;;;3.12;100.00;91825.59;5072238;28;20538;-85
2021/01/26 07:08:46;;;;;;;12.02;4.72;;;;;;;2.90;100.00;91805.53;5072178;28;20051;-85
2021/01/26 07:11:33;;;;;;;7.38;3.53;;;;;;;3.03;100.00;91841.03;5072000;28;20052;-84
2021/01/26 07:14:10;;;;;;;2.63;1.35;;;;;;;2.91;100.00;91847.66;5072040;28;20059;-85
2021/01/26 07:16:52;;;;;;;1.52;1.10;;;;;;;2.80;100.00;91849.84;5071228;28;20048;-81
2021/01/26 07:19:39;;;;;;;2.28;1.52;;;;;;;2.73;100.00;91855.88;5072163;28;20048;-85
2021/01/26 07:22:30;;;;;;;3.70;2.20;;;;;;;2.69;100.00;91852.19;5071903;28;20048;-86
2021/01/26 07:25:06;;;;;;;4.03;2.10;;;;;;;2.74;100.00;91867.59;5071935;28;20067;-85
2021/01/26 07:27:46;;;;;;;4.38;1.80;;;;;;;2.68;100.00;91861.53;5071818;28;20501;-88
2021/01/26 07:30:19;;;;;;;2.88;1.83;;;;;;;2.48;100.00;91848.84;5071658;28;20049;-89
2021/01/26 07:32:56;;;;;;;2.22;1.35;;;;;;;2.66;100.00;91878.69;5072180;28;20048;-88
2021/01/26 07:35:31;;;;;;;3.60;2.00;;;;;;;2.62;100.00;91880.06;5071695;28;20048;-88
2021/01/26 07:38:02;;;;;;;4.43;2.05;;;;;;;2.58;100.00;91884.72;5071576;28;20416;-90
2021/01/26 07:40:35;;;;;;;2.15;1.30;;;;;;;2.49;100.00;91886.69;5071435;28;20063;-91
2021/01/26 07:43:17;;;;;;;2.58;1.30;;;;;;;2.49;100.00;91891.75;5071655;28;20451;-93
2021/01/26 07:45:52;;;;;;;2.85;1.65;;;;;;;2.26;100.00;91887.81;5071197;28;20052;-91
2021/01/26 07:48:27;;;;;;;4.75;2.28;;;;;;;2.30;100.00;91913.53;5071498;28;20079;-91
2021/01/26 07:50:57;;;;;;;2.55;1.20;;;;;;;2.03;100.00;91917.75;5071731;28;20169;-88
2021/01/26 07:53:30;;;;;;;5.07;1.63;;;;;;;1.80;100.00;91921.38;5071560;28;20088;-87
2021/01/26 07:56:04;;;;;;;2.15;1.55;;;;;;;1.63;100.00;91925.94;5071375;28;20074;-87
2021/01/26 07:58:32;;;;;;;3.55;1.73;;;;;;;1.72;100.00;91945.84;5071403;28;20390;-88
2021/01/26 08:01:02;;;;;;;1.58;1.13;;;;;;;1.50;100.00;91936.75;5071290;28;20060;-86
2021/01/26 08:03:29;;;;;;;2.85;1.65;;;;;;;1.21;100.00;91957.03;5070928;28;20060;-87
2021/01/26 08:05:57;;;;;;;1.35;0.93;;;;;;;1.06;100.00;91962.94;4888631;28;5000852;-88
2021/01/26 08:08:27;;;;;;;1.30;0.75;;;;;;;1.22;100.00;91983.09;5071154;28;20059;-89
2021/01/26 08:11:10;;;;;;;1.20;0.75;;;;;;;0.82;100.00;91950.69;5071210;28;20086;-90
2021/01/26 08:13:40;;;;;;;5.50;2.15;;;;;;;0.74;100.00;91984.44;5071025;28;20044;-90
2021/01/26 08:16:13;;;;;;;3.58;1.10;;;;;;;0.71;100.00;91993.19;5071214;28;20056;-90
2021/01/26 08:18:42;;;;;;;4.03;1.65;;;;;;;0.51;100.00;91975.28;5071066;28;20047;-91
2021/01/26 08:21:39;;;;;;;5.60;2.75;;;;;;;0.59;100.00;92005.50;5071320;28;20500;-92
2021/01/26 08:24:16;;;;;;;3.28;1.17;;;;;;;0.35;100.00;91972.00;5071882;28;20501;-92
2021/01/26 08:26:44;;;;;;;3.88;1.50;;;;;;;0.45;100.00;91996.19;5072989;28;20044;-93
2021/01/26 08:29:11;;;;;;;3.38;1.67;;;;;;;0.34;100.00;92008.34;5071110;28;20082;-91
2021/01/26 08:31:39;;;;;;;5.57;2.28;;;;;;;0.40;100.00;91994.22;5071246;28;20048;-89
2021/01/26 08:34:39;;;;;;;6.97;1.95;;;;;;;0.50;100.00;92017.44;5070696;28;20056;-88
2021/01/26 08:37:24;;;;;;;13.55;4.28;;;;;;;0.34;100.00;92026.03;5070880;28;20048;-86
2021/01/26 08:39:51;;;;;;;2.72;1.67;;;;;;;0.34;100.00;92036.13;5070753;28;20049;-87
2021/01/26 08:42:51;;;;;;;2.88;1.80;;;;;;;0.04;100.00;92027.78;5070834;28;20481;-89
2021/01/26 08:45:39;;;;;;;4.20;3.00;;;;;;;0.15;100.00;92031.59;5070833;28;20049;-91
2021/01/26 08:48:08;;;;;;;4.72;2.65;;;;;;;0.19;100.00;92046.22;5070893;28;20044;-91
2021/01/26 08:50:38;;;;;;;2.67;1.25;;;;;;;0.33;100.00;92038.81;5070390;28;20079;-91
2021/01/26 08:53:17;;;;;;;9.15;3.88;;;;;;;0.30;100.00;92044.22;5070481;28;20488;-91
2021/01/26 08:55:45;;;;;;;4.57;3.25;;;;;;;0.06;100.00;92046.06;5070731;28;20052;-90
2021/01/26 08:58:13;;;;;;;1.95;1.80;;;;;;;0.11;100.00;92042.06;5070649;28;20045;-89
2021/01/26 09:00:47;;;;;;;9.85;4.78;;;;;;;-0.06;100.00;92033.09;5070556;28;20044;-87
2021/01/26 09:03:37;;;;;;;1.92;1.38;;;;;;;0.02;100.00;92038.06;5070396;28;20114;-86
2021/01/26 09:06:08;;;;;;;1.50;1.30;;;;;;;-0.37;100.00;92037.31;5070508;28;20508;-87
2021/01/26 09:08:56;;;;;;;2.30;2.10;;;;;;;-0.38;100.00;92022.38;5070541;28;20051;-89
2021/01/26 09:11:29;;;;;;;3.92;2.33;;;;;;;-0.42;100.00;92054.72;5070277;28;20041;-84
2021/01/26 09:14:03;;;;;;;1.85;1.40;;;;;;;-0.47;100.00;92067.84;5070283;28;20385;-86
2021/01/26 09:16:32;;;;;;;7.35;1.63;;;;;;;-0.32;100.00;92069.63;5070121;28;20056;-84
2021/01/26 09:19:02;;;;;;;7.25;3.08;;;;;;;-0.18;100.00;92080.69;5070262;28;20064;-84
2021/01/26 09:21:31;;;;;;;7.38;2.85;;;;;;;-0.17;100.00;92077.22;5070452;28;20412;-84
2021/01/26 09:23:57;;;;;;;5.03;1.33;;;;;;;-0.18;100.00;92073.91;5069138;28;20045;-84
2021/01/26 09:26:26;;;;;;;3.38;1.67;;;;;;;-0.17;100.00;92080.53;5052453;28;20412;-83
2021/01/26 09:28:54;;;;;;;3.80;1.58;;;;;;;-0.12;100.00;92082.53;5051031;28;20063;-83
2021/01/26 09:31:23;;;;;;;4.82;2.47;;;;;;;-0.33;100.00;92089.03;5066279;28;20074;-83
2021/01/26 09:34:00;;;;;;;2.08;1.88;;;;;;;-0.38;100.00;92082.94;5070172;28;20135;-83
2021/01/26 09:36:26;;;;;;;5.38;1.83;;;;;;;-0.50;100.00;92085.88;5066684;28;20550;-83
2021/01/26 09:39:00;;;;;;;1.20;1.05;;;;;;;-0.59;100.00;92082.63;5070366;28;20094;-82
2021/01/26 09:41:29;;;;;;;1.23;0.88;;;;;;;-0.54;100.00;92077.06;5073573;28;20052;-82
2021/01/26 09:43:58;;;;;;;1.75;1.55;;;;;;;-0.59;100.00;92081.81;5073712;28;20516;-83
2021/01/26 09:46:28;;;;;;;0.95;0.70;;;;;;;-0.69;100.00;92082.84;5074021;28;21018;-83
2021/01/26 09:48:57;;;;;;;5.75;1.35;;;;;;;-0.63;100.00;92086.44;5073698;28;20048;-83
2021/01/26 09:51:26;;;;;;;1.38;0.73;;;;;;;-0.49;100.00;92077.34;5073825;28;20053;-83
2021/01/26 09:54:00;;;;;;;4.50;2.33;;;;;;;-0.43;100.00;92079.19;5073416;28;20055;-83
2021/01/26 09:56:27;;;;;;;5.45;2.63;;;;;;;-0.17;100.00;92080.53;5073479;28;20057;-86
2021/01/26 09:58:54;;;;;;;1.98;0.65;;;;;;;-0.52;100.00;92084.47;5073615;28;20056;-83
2021/01/26 10:01:22;;;;;;;2.60;0.88;;;;;;;-0.76;100.00;92061.78;5073401;28;20053;-82
2021/01/26 10:03:52;;;;;;;1.52;0.47;;;;;;;-0.67;100.00;92075.09;5073340;28;20036;-82
2021/01/26 10:06:20;;;;;;;0.88;0.40;;;;;;;-0.65;100.00;92070.66;5073270;28;20049;-82
2021/01/26 10:08:46;;;;;;;1.17;0.70;;;;;;;-0.63;100.00;92065.47;5073383;28;20053;-82
2021/01/26 10:11:13;;;;;;;;;;;;;;;-0.43;100.00;92076.66;5073938;28;20041;-83
2021/01/26 10:13:41;;;;;;;2.75;1.30;;;;;;;-0.67;100.00;92070.06;5073180;28;19931;-82
2021/01/26 10:16:29;;;;;;;4.97;2.05;;;;;;;-0.51;100.00;92079.22;5073176;28;20053;-83
2021/01/26 10:18:57;;;;;;;2.63;1.55;;;;;;;-0.52;100.00;92082.72;5073006;28;20385;-83
2021/01/26 10:21:30;;;;;;;1.92;1.38;;;;;;;-0.35;100.00;92080.06;5073292;28;20040;-83
2021/01/26 10:24:02;;;;;;;2.22;1.75;;;;;;;-0.35;100.00;92043.00;5073286;28;20562;-83
2021/01/26 10:26:32;;;;;;;1.52;0.88;;;;;;;-0.10;100.00;92077.31;5073034;28;20055;-83
2021/01/26 10:29:17;;;;;;;1.27;1.00;;;;;;;-0.36;100.00;92073.44;5072319;28;20068;-83
2021/01/26 10:31:47;;;;;;;0.90;0.52;;;;;;;-0.31;100.00;92071.19;5072743;28;20486;-84
2021/01/26 10:34:24;;;;;;;3.40;1.48;;;;;;;-0.14;100.00;92066.75;5072723;28;20060;-84
2021/01/26 10:36:51;;;;;;;2.13;1.55;;;;;;;-0.31;100.00;92063.63;5072979;28;20049;-85
2021/01/26 10:39:26;;;;;;;2.33;1.48;;;;;;;-0.24;100.00;92074.59;5072827;28;20048;-83
2021/01/26 10:41:59;;;;;;;2.15;1.15;;;;;;;-0.24;100.00;92078.88;5072464;28;20489;-83
2021/01/26 10:44:26;;;;;;;0.50;0.50;;;;;;;-0.31;100.00;92089.66;5061683;28;20045;-84
2021/01/26 10:46:54;;;;;;;1.90;0.80;;;;;;;-0.19;100.00;92089.22;5072781;28;20053;-84
2021/01/26 10:49:26;;;;;;;1.33;0.68;;;;;;;-0.28;100.00;92086.78;5072864;28;20102;-84
2021/01/26 10:51:53;;;;;;;3.72;1.73;;;;;;;-0.33;100.00;92086.50;5073004;28;20079;-84
2021/01/26 10:54:20;;;;;;;3.22;2.17;;;;;;;-0.19;100.00;92084.19;5072387;28;20083;-84
2021/01/26 10:56:46;;;;;;;0.60;0.50;;;;;;;-0.17;100.00;92089.84;5072690;28;20483;-85
2021/01/26 10:59:12;;;;;;;1.38;1.08;;;;;;;-0.07;100.00;92095.44;5072663;28;20044;-85
2021/01/26 11:01:40;;;;;;;;;;;;;;;-0.33;100.00;92098.34;5073020;28;20080;-87
2021/01/26 11:04:07;;;;;;;4.13;1.52;;;;;;;-0.44;100.00;92097.00;5072492;28;19931;-85
2021/01/26 11:06:33;;;;;;;6.53;2.85;;;;;;;-0.22;100.00;92102.19;5072295;28;20044;-87
2021/01/26 11:09:00;;;;;;;;;;;;;;;-0.14;100.00;92110.47;5072593;28;20047;-86
2021/01/26 11:11:28;;;;;;;1.23;1.02;;;;;;;-0.31;100.00;92104.78;5072437;28;19920;-86
2021/01/26 11:13:57;;;;;;;1.15;0.68;;;;;;;-0.56;100.00;92115.06;5072306;28;20050;-87
2021/01/26 11:16:24;;;;;;;1.45;1.10;;;;;;;-0.54;100.00;92110.63;5072189;28;20048;-87
2021/01/26 11:18:50;;;;;;;1.60;1.13;;;;;;;-0.70;100.00;92105.69;5072166;28;20044;-87
2021/01/26 11:21:16;;;;;;;2.22;1.25;;;;;;;-0.49;100.00;92101.75;5071994;28;20045;-90
2021/01/26 11:23:42;;;;;;;;;;;;;;;-0.61;100.00;92096.34;5072600;28;20098;-89
2021/01/26 11:26:12;;;;;;;1.77;0.93;;;;;;;-0.74;100.00;92049.78;5071732;28;19924;-88
2021/01/26 11:28:38;;;;;;;3.22;1.33;;;;;;;-0.33;100.00;92099.13;5070165;28;20125;-88
2021/01/26 11:31:04;;;;;;;1.55;1.25;;;;;;;-0.32;100.00;92102.44;5072235;28;20393;-90
2021/01/26 11:33:31;;;;;;;2.97;1.60;;;;;;;-0.32;100.00;92100.69;5072205;28;20052;-88
2021/01/26 11:35:58;;;;;;;2.15;0.98;;;;;;;-0.35;100.00;92078.31;5071666;28;20493;-89
2021/01/26 11:38:25;;;;;;;2.10;1.02;;;;;;;-0.12;100.00;92100.19;5071860;28;20045;-86
2021/01/26 11:40:51;;;;;;;2.65;1.25;;;;;;;-0.08;100.00;92093.88;5071869;28;20114;-90
2021/01/26 11:43:18;;;;;;;;;;;;;;;0.05;100.00;92092.47;5072011;28;20049;-90
2021/01/26 11:45:45;;;;;;;3.53;1.15;;;;;;;0.20;100.00;92097.53;5071674;28;19931;-90
2021/01/26 11:48:12;;;;;;;4.75;2.72;;;;;;;0.26;100.00;92094.31;5071749;28;20056;-91
2021/01/26 11:50:39;;;;;;;3.70;1.77;;;;;;;0.36;100.00;92091.50;5071425;28;20057;-92
2021/01/26 11:53:07;;;;;;;2.90;1.75;;;;;;;0.19;100.00;92086.63;5071639;28;20049;-89
2021/01/26 11:55:34;;;;;;;9.88;1.75;;;;;;;0.16;100.00;92094.56;5071453;28;20048;-88
2021/01/26 11:58:01;;;;;;;2.35;1.23;;;;;;;0.08;100.00;92092.91;5071600;28;20048;-90
2021/01/26 12:00:32;;;;;;;1.27;1.15;;;;;;;-0.01;100.00;92102.31;5071055;28;20456;-90
2021/01/26 12:02:59;;;;;;;2.08;1.10;;;;;;;-0.11;100.00;92093.41;5070753;28;20048;-89
2021/01/26 12:05:28;;;;;;;6.72;0.95;;;;;;;-0.16;100.00;92099.75;5071274;28;20048;-87